CheckWX is a tool to help pilots better visualize weather data.  It is not intended as a substitute for an official pre-flight weather briefing.

12:02:10 UTC

KLVN METAR
Airlake Airport
Minneapolis, Minnesota, USA
Current

27 mins ago

KLVN 251135Z AUTO 03003KT 10SM CLR M03/M06 A3034 RMK AO2
Observed
Mar-25 @ 11:35 UTC
Wind
  • 030° at 3 KTS
Visibility
10 SM
Flight Rules
VFR
Cloud Levels
  • Clear skies
Temperature
-3°C / 27°F
Dewpoint
-6°C / 21°F
Humidity
80%
Altimeter
30.34" Hg
Pressure
1027.42 hPa
Previous

47 mins ago

KLVN 251115Z AUTO 03003KT 10SM CLR M03/M06 A3034 RMK AO2
Observed
Mar-25 @ 11:15 UTC
Wind
  • 030° at 3 KTS
Visibility
10 SM
Flight Rules
VFR
Cloud Levels
  • Clear skies
Temperature
-3°C / 27°F
Dewpoint
-6°C / 21°F
Humidity
80%
Altimeter
30.34" Hg
Pressure
1027.42 hPa
Previous

1 hour ago

KLVN 251056Z AUTO 03003KT 10SM M02/M06 A3033 RMK AO2
Observed
Mar-25 @ 10:56 UTC
Wind
  • 030° at 3 KTS
Visibility
10 SM
Temperature
-2°C / 28°F
Dewpoint
-6°C / 21°F
Humidity
74%
Altimeter
30.33" Hg
Pressure
1027.12 hPa